Time;durP1;ratioP1;P1;durP2;ratioP2;P2;SDS_P1;SDS_P2;PMS_P1;PMS_P2;Temp;Humidity;BMP_temperature;BMP_pressure;BME280_temperature;BME280_humidity;BME280_pressure;Samples;Min_cycle;Max_cycle;Signal;HPM_P1;HPM_P2
2022/06/22 00:01:27;;;;;;;2.30;2.10;;;25.60;45.40;;;;;;4975309;28;20478;-86
2022/06/22 00:03:56;;;;;;;2.50;2.30;;;25.60;45.40;;;;;;4975487;28;20469;-86
2022/06/22 00:06:29;;;;;;;2.67;2.47;;;25.50;45.40;;;;;;4975224;28;20480;-86
2022/06/22 00:08:58;;;;;;;2.60;2.43;;;25.60;45.30;;;;;;4976930;28;20454;-86
2022/06/22 00:11:27;;;;;;;2.03;1.93;;;25.60;45.40;;;;;;4975248;28;20478;-86
2022/06/22 00:13:56;;;;;;;2.37;2.27;;;25.50;45.20;;;;;;4975403;28;20529;-86
2022/06/22 00:16:26;;;;;;;2.57;2.47;;;25.50;45.40;;;;;;4975889;28;20429;-85
2022/06/22 00:18:54;;;;;;;2.10;2.03;;;25.40;45.30;;;;;;4975479;28;20509;-86
2022/06/22 00:21:24;;;;;;;2.30;2.20;;;25.40;45.30;;;;;;4975118;28;20451;-86
2022/06/22 00:23:53;;;;;;;2.10;2.00;;;25.40;45.30;;;;;;4974548;28;20448;-86
2022/06/22 00:26:31;;;;;;;2.30;2.20;;;25.40;45.30;;;;;;4974825;28;20489;-88
2022/06/22 00:29:05;;;;;;;2.63;2.43;;;25.40;45.30;;;;;;4974316;28;20421;-86
2022/06/22 00:31:38;;;;;;;2.20;2.10;;;25.30;45.30;;;;;;4974664;28;20466;-87
2022/06/22 00:34:13;;;;;;;2.43;2.30;;;25.30;45.40;;;;;;4974786;28;20458;-86
2022/06/22 00:36:45;;;;;;;2.83;2.37;;;25.30;45.50;;;;;;4974797;28;20512;-86
2022/06/22 00:39:23;;;;;;;2.30;2.10;;;25.20;45.50;;;;;;4974841;28;20521;-86
2022/06/22 00:41:56;;;;;;;2.30;2.20;;;25.20;45.40;;;;;;4974964;28;20575;-86
2022/06/22 00:44:24;;;;;;;2.20;2.07;;;25.20;45.40;;;;;;4974124;28;20424;-86
2022/06/22 00:46:58;;;;;;;2.00;1.90;;;25.20;45.30;;;;;;4974116;28;20485;-88
2022/06/22 00:49:26;;;;;;;1.90;1.90;;;25.20;45.30;;;;;;4974147;28;20460;-86
2022/06/22 00:51:54;;;;;;;2.40;2.30;;;25.20;45.40;;;;;;4974025;28;20489;-86
2022/06/22 00:54:26;;;;;;;2.47;2.27;;;25.10;45.40;;;;;;4973813;28;20515;-86
2022/06/22 00:57:01;;;;;;;2.20;2.10;;;25.10;45.50;;;;;;4974107;28;20447;-86
2022/06/22 00:59:34;;;;;;;2.10;2.00;;;25.00;45.40;;;;;;4974023;28;20511;-86
2022/06/22 01:02:04;;;;;;;2.27;2.13;;;25.00;45.40;;;;;;4973854;28;20500;-86
2022/06/22 01:04:38;;;;;;;2.20;2.10;;;25.00;45.50;;;;;;4973871;28;20484;-86
2022/06/22 01:07:09;;;;;;;2.37;2.27;;;25.00;45.60;;;;;;4975438;28;20537;-86
2022/06/22 01:09:38;;;;;;;2.33;2.10;;;24.90;45.50;;;;;;4976033;28;20500;-86
2022/06/22 01:12:18;;;;;;;2.43;2.23;;;24.90;45.40;;;;;;4975598;28;20532;-86
2022/06/22 01:14:50;;;;;;;2.60;2.50;;;24.90;45.60;;;;;;4973881;28;20461;-86
2022/06/22 01:17:20;;;;;;;2.27;2.17;;;24.90;45.60;;;;;;4973661;28;20516;-86
2022/06/22 01:19:52;;;;;;;2.50;2.30;;;24.90;45.50;;;;;;4973526;28;20537;-86
2022/06/22 01:22:33;;;;;;;2.33;2.23;;;24.90;45.40;;;;;;4973674;28;20494;-86
2022/06/22 01:25:04;;;;;;;2.10;2.00;;;24.80;45.40;;;;;;4973496;28;20528;-86
2022/06/22 01:27:34;;;;;;;2.33;2.23;;;24.80;45.50;;;;;;4973528;28;20428;-86
2022/06/22 01:30:05;;;;;;;2.53;2.43;;;24.80;45.50;;;;;;4974726;28;20466;-85
2022/06/22 01:32:34;;;;;;;2.70;2.40;;;24.70;45.40;;;;;;4979129;28;20504;-86
2022/06/22 01:35:04;;;;;;;2.80;2.60;;;24.70;45.50;;;;;;4980376;28;20484;-86
2022/06/22 01:37:33;;;;;;;2.20;2.10;;;24.70;45.60;;;;;;4979008;28;20995;-85
2022/06/22 01:40:06;;;;;;;2.37;2.17;;;24.60;45.40;;;;;;4979820;28;20470;-85
2022/06/22 01:42:38;;;;;;;2.63;2.53;;;24.70;45.50;;;;;;4983537;28;20466;-85
2022/06/22 01:45:12;;;;;;;2.40;2.30;;;24.60;45.40;;;;;;4983879;28;20432;-86
2022/06/22 01:47:46;;;;;;;2.40;2.30;;;24.60;45.30;;;;;;4982387;28;20427;-86
2022/06/22 01:50:25;;;;;;;2.50;2.30;;;24.50;45.40;;;;;;4982472;28;20502;-86
2022/06/22 01:53:02;;;;;;;2.00;1.90;;;24.50;46.00;;;;;;4982860;28;20440;-86
2022/06/22 01:55:39;;;;;;;2.50;2.30;;;24.50;45.40;;;;;;4983902;28;20424;-86
2022/06/22 01:58:30;;;;;;;2.60;2.50;;;24.50;45.50;;;;;;4984391;28;20461;-85
2022/06/22 02:00:59;;;;;;;2.60;2.50;;;24.40;45.30;;;;;;4984951;28;20476;-85
2022/06/22 02:03:34;;;;;;;2.90;2.70;;;24.40;45.40;;;;;;4983680;28;20461;-84
2022/06/22 02:07:44;;;;;;;2.40;2.13;;;24.40;45.40;;;;;;4984035;28;20442;-87
2022/06/22 02:08:52;;;;;;;2.40;2.17;;;24.30;45.50;;;;;;4984423;28;20427;-85
2022/06/22 02:11:22;;;;;;;2.80;2.60;;;24.30;45.30;;;;;;4984183;28;20453;-85
2022/06/22 02:13:53;;;;;;;2.53;2.43;;;24.30;45.30;;;;;;4983498;28;20476;-85
2022/06/22 02:16:23;;;;;;;2.50;2.40;;;24.30;45.40;;;;;;4984034;28;20520;-85
2022/06/22 02:18:52;;;;;;;2.60;2.50;;;24.30;45.30;;;;;;4983928;28;20427;-85
2022/06/22 02:21:22;;;;;;;2.40;2.30;;;24.30;45.50;;;;;;4982939;28;20452;-86
2022/06/22 02:23:55;;;;;;;2.60;2.50;;;24.20;45.40;;;;;;4982840;28;20440;-86
2022/06/22 02:26:29;;;;;;;2.80;2.60;;;24.20;45.40;;;;;;4983789;28;20524;-85
2022/06/22 02:28:59;;;;;;;2.37;2.27;;;24.20;45.40;;;;;;4984150;28;20424;-85
2022/06/22 02:31:27;;;;;;;2.73;2.60;;;24.20;45.50;;;;;;4983097;28;20448;-86
2022/06/22 02:33:56;;;;;;;2.63;2.43;;;24.10;45.20;;;;;;4983672;28;20450;-87
2022/06/22 02:36:25;;;;;;;2.80;2.60;;;24.10;45.40;;;;;;4984248;28;20420;-85
2022/06/22 02:38:53;;;;;;;2.83;2.63;;;24.10;45.20;;;;;;4984200;28;20428;-85
2022/06/22 02:44:31;;;;;;;2.47;2.37;;;24.10;45.20;;;;;;4983009;28;20477;-85
2022/06/22 02:47:00;;;;;;;2.37;2.27;;;24.00;45.30;;;;;;4983737;28;20425;-85
2022/06/22 02:49:31;;;;;;;2.60;2.50;;;24.00;45.60;;;;;;4983649;28;20455;-86
2022/06/22 02:51:59;;;;;;;2.60;2.50;;;24.00;45.40;;;;;;4983704;28;20509;-85
2022/06/22 02:54:30;;;;;;;2.70;2.60;;;24.00;45.40;;;;;;4985019;28;20453;-86
2022/06/22 02:57:06;;;;;;;2.80;2.60;;;23.90;45.40;;;;;;4983594;28;20435;-86
2022/06/22 02:59:36;;;;;;;3.13;2.60;;;23.90;45.40;;;;;;4983442;28;20511;-87
2022/06/22 03:02:04;;;;;;;3.20;2.73;;;23.90;45.40;;;;;;4983882;28;20457;-86
2022/06/22 03:04:32;;;;;;;2.93;2.73;;;23.90;45.30;;;;;;4983471;28;20468;-85
2022/06/22 03:07:00;;;;;;;2.73;2.63;;;23.80;45.40;;;;;;4983697;28;20417;-85
2022/06/22 03:09:29;;;;;;;3.10;2.90;;;23.80;45.40;;;;;;4983410;28;20425;-86
2022/06/22 03:11:57;;;;;;;2.73;2.63;;;23.80;45.40;;;;;;4983455;28;20517;-85
2022/06/22 03:14:27;;;;;;;2.90;2.70;;;23.70;45.40;;;;;;4983480;28;20429;-85
2022/06/22 03:16:59;;;;;;;3.37;3.03;;;23.70;45.40;;;;;;4983302;28;20444;-85
2022/06/22 03:19:29;;;;;;;2.70;2.60;;;23.70;45.40;;;;;;4983815;28;20435;-85
2022/06/22 03:21:57;;;;;;;2.70;2.60;;;23.70;45.40;;;;;;4983201;28;20462;-85
2022/06/22 03:24:35;;;;;;;2.73;2.60;;;23.70;45.40;;;;;;4983212;28;20425;-85
2022/06/22 03:27:05;;;;;;;2.53;2.37;;;23.70;45.40;;;;;;4983356;28;20457;-86
2022/06/22 03:29:35;;;;;;;2.50;2.40;;;23.60;45.50;;;;;;4980819;28;20453;-85
2022/06/22 03:32:06;;;;;;;2.73;2.53;;;23.60;45.30;;;;;;4976379;28;20509;-86
2022/06/22 03:34:35;;;;;;;2.40;2.30;;;23.60;45.40;;;;;;4977103;28;20403;-85
2022/06/22 03:37:07;;;;;;;2.70;2.60;;;23.60;45.30;;;;;;4976175;28;20483;-87
2022/06/22 03:39:36;;;;;;;2.70;2.60;;;23.60;45.50;;;;;;4976679;28;20483;-85
2022/06/22 03:42:07;;;;;;;3.20;3.00;;;23.60;45.40;;;;;;4976505;28;20496;-85
2022/06/22 03:44:41;;;;;;;2.93;2.73;;;23.60;45.30;;;;;;4976684;28;20520;-85
2022/06/22 03:47:17;;;;;;;2.80;2.60;;;23.50;45.40;;;;;;4976718;28;20432;-85
2022/06/22 03:49:53;;;;;;;2.83;2.70;;;23.50;45.20;;;;;;4975950;28;20456;-85
2022/06/22 03:52:29;;;;;;;2.97;2.77;;;23.50;45.20;;;;;;4975814;28;20456;-85
2022/06/22 03:55:03;;;;;;;3.10;2.90;;;23.50;45.30;;;;;;4976434;28;20491;-85
2022/06/22 03:57:33;;;;;;;3.07;2.97;;;23.50;45.30;;;;;;4975904;28;20502;-84
2022/06/22 04:00:02;;;;;;;2.90;2.70;;;23.50;45.10;;;;;;4976297;28;20453;-86
2022/06/22 04:02:31;;;;;;;3.07;2.87;;;23.40;45.00;;;;;;4977980;28;20441;-85
2022/06/22 04:04:59;;;;;;;2.83;2.70;;;23.50;45.00;;;;;;4982165;28;20451;-85
2022/06/22 04:07:31;;;;;;;3.57;2.97;;;23.40;45.10;;;;;;4982102;28;20486;-84
2022/06/22 04:10:00;;;;;;;2.93;2.77;;;23.40;45.10;;;;;;4983004;28;20488;-85
2022/06/22 04:12:30;;;;;;;2.90;2.80;;;23.40;45.10;;;;;;4983021;28;20500;-85
2022/06/22 04:15:02;;;;;;;2.70;2.60;;;23.40;45.00;;;;;;4982523;28;20436;-87
2022/06/22 04:17:34;;;;;;;2.87;2.70;;;23.40;45.00;;;;;;4981943;28;20429;-85
2022/06/22 04:20:04;;;;;;;2.87;2.70;;;23.30;45.00;;;;;;4982372;28;20451;-85
2022/06/22 04:22:33;;;;;;;2.83;2.73;;;23.30;44.90;;;;;;4981405;28;20456;-85
2022/06/22 04:25:02;;;;;;;3.07;2.87;;;23.30;45.10;;;;;;4981807;28;20453;-85
2022/06/22 04:27:33;;;;;;;2.67;2.57;;;23.40;45.10;;;;;;4982305;28;20916;-86
2022/06/22 04:30:02;;;;;;;3.00;2.80;;;23.40;45.10;;;;;;4982295;28;20452;-85
2022/06/22 04:32:34;;;;;;;2.60;2.50;;;23.40;45.20;;;;;;4982114;28;20501;-86
2022/06/22 04:35:21;;;;;;;2.70;2.40;;;23.40;45.30;;;;;;4983295;28;20478;-86
2022/06/22 04:37:51;;;;;;;3.23;3.03;;;23.40;45.30;;;;;;4981961;28;20483;-86
2022/06/22 04:40:33;;;;;;;3.20;2.90;;;23.40;45.30;;;;;;4982589;28;20470;-86
2022/06/22 04:43:01;;;;;;;2.80;2.60;;;23.30;45.10;;;;;;4981739;28;20565;-86
2022/06/22 04:45:31;;;;;;;2.80;2.70;;;23.40;45.60;;;;;;4983385;28;20448;-86
2022/06/22 04:48:03;;;;;;;3.10;2.80;;;23.40;45.70;;;;;;4983676;28;20951;-85
2022/06/22 04:50:31;;;;;;;3.13;2.93;;;23.50;45.50;;;;;;4982868;28;20412;-86
2022/06/22 04:52:59;;;;;;;3.40;3.10;;;23.50;45.70;;;;;;4983337;28;20482;-86
2022/06/22 04:55:27;;;;;;;3.20;3.00;;;23.60;45.90;;;;;;4982831;28;20420;-87
2022/06/22 04:57:57;;;;;;;5.33;3.20;;;23.60;45.40;;;;;;4983181;28;20446;-86
2022/06/22 05:00:27;;;;;;;3.37;3.17;;;23.60;45.60;;;;;;4982955;28;20456;-87
2022/06/22 05:02:58;;;;;;;3.30;3.10;;;23.60;45.60;;;;;;4981648;28;20441;-86
2022/06/22 05:05:29;;;;;;;3.60;3.30;;;23.60;45.60;;;;;;4982050;28;20439;-85
2022/06/22 05:08:01;;;;;;;3.70;3.40;;;23.60;45.80;;;;;;4981827;28;20451;-85
2022/06/22 05:10:34;;;;;;;3.47;3.17;;;23.60;45.90;;;;;;4982521;28;21111;-86
2022/06/22 05:13:03;;;;;;;4.53;3.50;;;23.70;45.70;;;;;;4982334;28;20452;-86
2022/06/22 05:15:34;;;;;;;3.57;3.27;;;23.50;45.70;;;;;;4982314;28;20953;-85
2022/06/22 05:18:03;;;;;;;2.90;2.70;;;23.70;45.80;;;;;;4981524;28;20513;-85
2022/06/22 05:20:36;;;;;;;3.97;3.00;;;23.70;45.80;;;;;;4981600;28;20442;-85
2022/06/22 05:23:05;;;;;;;3.23;2.80;;;23.70;45.80;;;;;;4982189;28;20901;-86
2022/06/22 05:25:33;;;;;;;2.90;2.70;;;23.70;45.90;;;;;;4981888;28;20421;-86
2022/06/22 05:28:03;;;;;;;3.20;2.90;;;23.70;45.80;;;;;;4982735;28;20939;-85
2022/06/22 05:30:33;;;;;;;2.70;2.50;;;23.70;45.80;;;;;;4982370;28;20485;-85
2022/06/22 05:33:08;;;;;;;2.90;2.80;;;23.70;45.90;;;;;;4981659;28;20519;-85
2022/06/22 05:35:40;;;;;;;3.50;3.20;;;23.70;46.20;;;;;;4983654;28;20546;-86
2022/06/22 05:38:09;;;;;;;2.83;2.47;;;23.70;46.00;;;;;;4983064;28;20433;-86
2022/06/22 05:40:39;;;;;;;3.13;2.93;;;23.70;46.20;;;;;;4983130;28;20420;-85
2022/06/22 05:43:07;;;;;;;3.40;3.10;;;23.70;46.30;;;;;;4982739;28;20444;-86
2022/06/22 05:45:38;;;;;;;2.97;2.77;;;23.70;46.30;;;;;;4983678;28;20462;-85
2022/06/22 05:48:09;;;;;;;3.03;2.73;;;23.80;46.20;;;;;;4982842;28;20440;-87
2022/06/22 05:50:40;;;;;;;3.37;3.17;;;23.80;46.10;;;;;;4981757;28;20431;-86
2022/06/22 05:53:12;;;;;;;3.67;3.00;;;23.80;46.20;;;;;;4982358;28;20483;-85
2022/06/22 05:55:45;;;;;;;3.43;2.83;;;23.80;46.50;;;;;;4982415;28;20428;-85
2022/06/22 05:58:23;;;;;;;2.60;2.40;;;23.80;46.10;;;;;;4982460;28;20445;-87
2022/06/22 06:00:52;;;;;;;2.63;2.43;;;23.80;46.00;;;;;;4983831;28;20421;-85
2022/06/22 06:03:32;;;;;;;2.90;2.70;;;23.80;46.00;;;;;;4983578;28;20470;-89
2022/06/22 06:06:12;;;;;;;3.10;2.80;;;23.80;46.20;;;;;;4982548;28;20436;-85
2022/06/22 06:08:42;;;;;;;2.97;2.73;;;23.90;46.20;;;;;;4980114;28;20424;-87
2022/06/22 06:11:13;;;;;;;2.63;2.37;;;23.90;45.90;;;;;;4975515;28;20456;-85
2022/06/22 06:13:44;;;;;;;3.07;2.70;;;23.90;45.90;;;;;;4980467;28;20456;-85
2022/06/22 06:16:16;;;;;;;2.60;2.40;;;23.90;46.10;;;;;;4979520;28;20429;-85
2022/06/22 06:18:44;;;;;;;2.90;2.60;;;23.90;46.00;;;;;;4980263;28;20457;-85
2022/06/22 06:21:15;;;;;;;3.30;2.37;;;23.90;45.90;;;;;;4980676;28;20454;-86
2022/06/22 06:23:48;;;;;;;2.87;2.67;;;23.90;45.80;;;;;;4981512;28;20498;-87
2022/06/22 06:29:12;;;;;;;6.20;2.67;;;23.90;45.90;;;;;;4985416;28;20478;-87
2022/06/22 06:31:49;;;;;;;3.40;2.70;;;23.90;46.10;;;;;;4985577;28;20449;-86
2022/06/22 06:34:20;;;;;;;2.70;2.50;;;23.90;45.90;;;;;;4987295;28;20508;-85
2022/06/22 06:36:52;;;;;;;2.53;2.33;;;24.00;45.80;;;;;;4985775;28;20445;-85
2022/06/22 06:39:22;;;;;;;2.20;2.10;;;24.00;45.60;;;;;;4985314;28;20900;-85
2022/06/22 06:42:03;;;;;;;2.93;2.73;;;24.10;45.80;;;;;;4985066;28;20479;-85
2022/06/22 06:44:32;;;;;;;2.60;2.50;;;24.10;45.80;;;;;;4984518;28;20457;-85
2022/06/22 06:47:05;;;;;;;3.23;2.40;;;24.10;45.90;;;;;;4985465;28;20428;-86
2022/06/22 06:49:58;;;;;;;3.03;2.43;;;24.10;45.70;;;;;;4984874;28;20434;-85
2022/06/22 06:52:33;;;;;;;2.60;2.40;;;24.20;45.80;;;;;;4985750;28;20466;-88
2022/06/22 06:55:03;;;;;;;2.43;2.33;;;24.20;45.80;;;;;;4986512;28;20416;-86
2022/06/22 06:57:31;;;;;;;2.67;2.50;;;24.30;45.70;;;;;;4985370;28;20445;-86
2022/06/22 07:00:01;;;;;;;2.50;2.40;;;24.40;45.70;;;;;;4985477;28;20466;-85
2022/06/22 07:02:31;;;;;;;2.57;2.30;;;24.40;45.60;;;;;;4985192;28;20437;-86
2022/06/22 07:05:00;;;;;;;2.87;2.60;;;24.50;45.40;;;;;;4983840;28;20461;-85
2022/06/22 07:07:35;;;;;;;3.47;2.37;;;24.60;45.50;;;;;;4984769;28;20421;-86
2022/06/22 07:10:10;;;;;;;2.93;2.63;;;24.60;45.40;;;;;;4984852;28;20507;-85
2022/06/22 07:12:40;;;;;;;2.60;2.40;;;24.60;45.20;;;;;;4984684;28;20485;-86
2022/06/22 07:15:11;;;;;;;3.20;2.60;;;24.70;45.10;;;;;;4984644;28;20476;-86
2022/06/22 07:17:41;;;;;;;3.10;2.10;;;24.80;45.00;;;;;;4984842;28;20421;-87
2022/06/22 07:20:16;;;;;;;2.50;2.40;;;24.80;44.90;;;;;;4984833;28;20511;-85
2022/06/22 07:22:53;;;;;;;3.03;2.70;;;24.90;44.90;;;;;;4984548;28;20445;-88
2022/06/22 07:25:22;;;;;;;2.30;2.20;;;25.00;45.00;;;;;;4984722;28;20455;-87
2022/06/22 07:27:54;;;;;;;2.20;2.10;;;25.00;44.80;;;;;;4983783;28;20471;-85
2022/06/22 07:30:28;;;;;;;2.70;2.50;;;25.10;45.00;;;;;;4983798;28;20421;-85
2022/06/22 07:33:06;;;;;;;3.63;2.40;;;25.10;44.80;;;;;;4983915;28;20448;-84
2022/06/22 07:35:36;;;;;;;2.83;2.47;;;25.20;44.60;;;;;;4983280;28;20941;-86
2022/06/22 07:38:08;;;;;;;2.17;2.00;;;25.30;44.80;;;;;;4983726;28;20446;-85
2022/06/22 07:40:38;;;;;;;2.40;2.30;;;25.30;44.60;;;;;;4983440;28;20480;-86
2022/06/22 07:43:09;;;;;;;2.80;2.30;;;25.40;44.20;;;;;;4983931;28;20469;-86
2022/06/22 07:45:39;;;;;;;2.80;2.37;;;25.40;44.50;;;;;;4980537;28;20446;-87
2022/06/22 07:48:11;;;;;;;2.43;2.30;;;25.50;44.20;;;;;;4979393;28;20421;-86
2022/06/22 07:50:42;;;;;;;2.23;2.13;;;25.60;44.00;;;;;;4979275;28;20450;-86
2022/06/22 07:53:18;;;;;;;2.30;2.20;;;25.70;44.00;;;;;;4978547;28;20527;-88
2022/06/22 07:55:48;;;;;;;2.43;2.20;;;25.80;43.90;;;;;;4979122;28;20873;-86
2022/06/22 07:58:21;;;;;;;2.43;2.23;;;25.80;43.70;;;;;;4980009;28;20473;-85
2022/06/22 08:00:53;;;;;;;2.97;2.53;;;25.80;44.10;;;;;;4979423;28;20448;-87
2022/06/22 08:03:28;;;;;;;3.17;2.40;;;25.90;43.80;;;;;;4980191;28;20482;-87
2022/06/22 08:05:58;;;;;;;4.17;2.63;;;26.00;43.50;;;;;;4980152;28;20506;-86
2022/06/22 08:08:29;;;;;;;2.70;2.50;;;26.10;43.20;;;;;;4979587;28;20450;-86
2022/06/22 08:11:00;;;;;;;2.17;2.07;;;26.20;43.30;;;;;;4980594;28;20480;-85
2022/06/22 08:14:12;;;;;;;2.50;2.30;;;26.30;43.10;;;;;;4979657;28;20459;-86
2022/06/22 08:16:42;;;;;;;2.93;2.33;;;26.40;43.00;;;;;;4980551;28;20508;-86
2022/06/22 08:19:11;;;;;;;2.77;2.57;;;26.50;43.00;;;;;;4980485;28;20537;-87
2022/06/22 08:21:41;;;;;;;2.57;2.37;;;26.60;42.70;;;;;;4979817;28;20466;-86
2022/06/22 08:24:13;;;;;;;2.50;2.30;;;26.60;42.50;;;;;;4978305;28;20417;-86
2022/06/22 08:26:43;;;;;;;2.30;2.20;;;26.70;42.50;;;;;;4979420;28;20431;-85
2022/06/22 08:29:11;;;;;;;2.80;2.20;;;26.80;42.30;;;;;;4979559;28;20453;-86
2022/06/22 08:31:41;;;;;;;4.37;2.23;;;26.90;42.20;;;;;;4979337;28;20477;-83
2022/06/22 08:34:32;;;;;;;2.30;2.20;;;27.00;42.20;;;;;;4979591;28;20543;-85
2022/06/22 08:37:05;;;;;;;3.27;2.30;;;27.10;42.00;;;;;;4980469;28;20429;-85
2022/06/22 08:39:42;;;;;;;2.23;2.03;;;27.20;42.00;;;;;;4981228;28;20460;-85
2022/06/22 08:42:21;;;;;;;2.03;1.93;;;27.30;41.70;;;;;;4981668;28;20521;-84
2022/06/22 08:44:59;;;;;;;2.20;2.00;;;27.40;41.50;;;;;;4980804;28;20468;-85
2022/06/22 08:47:56;;;;;;;2.20;2.10;;;27.50;41.50;;;;;;4979556;28;20420;-85
2022/06/22 08:50:36;;;;;;;2.80;2.30;;;27.60;41.30;;;;;;4980923;28;20521;-85
2022/06/22 08:53:14;;;;;;;2.83;2.20;;;27.70;41.20;;;;;;4978790;28;20505;-84
2022/06/22 08:55:57;;;;;;;3.47;2.40;;;27.80;41.10;;;;;;4979948;28;20485;-86
2022/06/22 08:58:35;;;;;;;4.70;2.50;;;27.90;41.00;;;;;;4979488;28;20477;-87
2022/06/22 09:01:05;;;;;;;2.53;2.33;;;28.00;41.00;;;;;;4979998;28;20450;-85
2022/06/22 09:03:52;;;;;;;2.90;2.20;;;28.10;41.10;;;;;;4979709;28;20468;-85
2022/06/22 09:06:36;;;;;;;2.23;2.03;;;28.20;40.80;;;;;;4979620;28;20450;-83
2022/06/22 09:09:31;;;;;;;2.70;2.50;;;28.30;40.60;;;;;;4978874;28;20454;-86
2022/06/22 09:12:11;;;;;;;2.63;1.97;;;28.20;40.50;;;;;;4980069;28;20500;-85
2022/06/22 09:15:13;;;;;;;2.77;2.30;;;28.40;40.40;;;;;;4978497;28;20484;-84
2022/06/22 09:18:02;;;;;;;2.30;2.20;;;28.30;40.00;;;;;;4974397;28;20494;-85
2022/06/22 09:20:49;;;;;;;2.90;2.40;;;28.60;39.80;;;;;;4980530;28;20446;-85
2022/06/22 09:23:26;;;;;;;2.63;2.40;;;28.60;39.50;;;;;;4979800;28;20522;-85
2022/06/22 09:26:02;;;;;;;2.60;1.80;;;28.70;39.50;;;;;;4978712;28;20442;-85
2022/06/22 09:28:35;;;;;;;2.20;2.10;;;28.80;39.20;;;;;;4978771;28;20425;-84
2022/06/22 09:34:37;;;;;;;2.40;2.20;;;29.00;38.70;;;;;;4977901;28;20450;-85
2022/06/22 09:37:23;;;;;;;2.20;2.10;;;29.20;38.80;;;;;;4980442;28;20525;-85
2022/06/22 09:40:24;;;;;;;2.60;2.23;;;29.40;38.80;;;;;;4978491;28;20525;-86
2022/06/22 09:43:26;;;;;;;2.00;1.90;;;29.60;38.50;;;;;;4978830;28;20514;-84
2022/06/22 09:46:11;;;;;;;2.47;2.20;;;29.60;38.00;;;;;;4979250;28;20446;-86
2022/06/22 09:49:02;;;;;;;2.40;2.20;;;29.60;38.30;;;;;;4977414;28;20450;-85
2022/06/22 09:51:41;;;;;;;2.20;2.10;;;29.60;38.40;;;;;;4979418;28;20494;-85
2022/06/22 09:57:30;;;;;;;2.70;2.47;;;29.60;38.30;;;;;;4976218;28;20544;-86
2022/06/22 10:00:04;;;;;;;2.13;2.00;;;29.70;37.80;;;;;;4978356;28;20480;-89
2022/06/22 10:03:01;;;;;;;2.40;2.17;;;29.80;37.80;;;;;;4981167;28;20541;-83
2022/06/22 10:06:03;;;;;;;2.33;2.10;;;30.00;37.70;;;;;;4955551;28;20521;-85
2022/06/22 10:08:43;;;;;;;2.20;2.10;;;30.00;37.30;;;;;;4903890;29;20545;-84
2022/06/22 10:11:21;;;;;;;2.20;2.00;;;29.90;37.30;;;;;;4971398;28;20457;-85
2022/06/22 10:14:10;;;;;;;2.00;1.90;;;29.90;37.50;;;;;;4983327;28;20454;-85
2022/06/22 10:16:44;;;;;;;2.40;2.07;;;30.10;37.60;;;;;;4982970;28;21069;-85
2022/06/22 10:19:28;;;;;;;2.37;2.27;;;30.30;37.40;;;;;;4984107;28;20798;-85
2022/06/22 10:22:06;;;;;;;2.00;1.90;;;30.50;37.00;;;;;;4983630;28;20561;-85
2022/06/22 10:24:42;;;;;;;2.40;2.20;;;30.40;36.60;;;;;;4983178;28;20540;-85
2022/06/22 10:27:31;;;;;;;2.63;2.43;;;30.20;36.60;;;;;;4983468;28;20468;-85
2022/06/22 10:30:24;;;;;;;2.00;1.90;;;30.40;36.60;;;;;;4983091;28;20446;-85
2022/06/22 10:33:15;;;;;;;2.97;2.70;;;30.50;36.60;;;;;;4983316;28;20466;-86
2022/06/22 10:36:06;;;;;;;2.10;1.90;;;30.60;36.20;;;;;;4959658;28;20569;-85
2022/06/22 10:38:42;;;;;;;3.70;2.13;;;30.80;36.40;;;;;;4965499;28;20533;-85
2022/06/22 10:47:21;;;;;;;2.07;1.90;;;30.70;36.20;;;;;;4968853;28;20449;-86
2022/06/22 10:49:57;;;;;;;2.07;1.97;;;30.70;36.30;;;;;;4973339;28;20470;-84
2022/06/22 10:53:03;;;;;;;2.00;1.90;;;30.70;36.10;;;;;;4970974;28;20477;-86
2022/06/22 10:55:57;;;;;;;3.00;2.13;;;30.90;36.10;;;;;;4963291;28;20462;-85
2022/06/22 10:58:42;;;;;;;2.50;2.30;;;31.20;35.90;;;;;;4980462;28;20450;-87
2022/06/22 11:01:31;;;;;;;2.20;2.10;;;31.30;35.60;;;;;;4965351;28;20461;-85
2022/06/22 11:04:18;;;;;;;5.27;2.30;;;31.50;35.70;;;;;;4976370;28;20511;-86
2022/06/22 11:07:29;;;;;;;4.47;2.73;;;31.30;35.00;;;;;;4965058;29;20470;-85
2022/06/22 11:10:24;;;;;;;2.60;2.40;;;31.50;35.10;;;;;;4930883;29;20511;-85
2022/06/22 11:13:03;;;;;;;4.80;2.27;;;31.70;35.20;;;;;;4980936;28;20462;-84
2022/06/22 11:16:09;;;;;;;1.97;1.87;;;31.80;35.00;;;;;;4982166;28;20474;-84
2022/06/22 11:19:19;;;;;;;2.10;2.00;;;32.10;35.00;;;;;;4978361;28;20439;-85
2022/06/22 11:21:57;;;;;;;11.43;2.37;;;32.20;34.70;;;;;;4963013;29;20478;-83
2022/06/22 11:24:57;;;;;;;2.00;1.90;;;32.20;34.60;;;;;;4974402;28;20454;-85
2022/06/22 11:33:21;;;;;;;3.03;2.03;;;32.50;34.60;;;;;;4967846;28;20473;-86
2022/06/22 11:36:03;;;;;;;2.40;1.93;;;32.50;34.30;;;;;;4982358;28;20481;-85
2022/06/22 11:38:57;;;;;;;2.90;2.20;;;32.70;34.10;;;;;;4982453;28;20491;-84
2022/06/22 11:41:45;;;;;;;2.60;2.00;;;32.70;34.00;;;;;;4984195;28;20474;-85
2022/06/22 11:45:50;;;;;;;3.10;2.03;;;32.80;34.10;;;;;;4982806;28;20449;-86
2022/06/22 11:47:59;;;;;;;4.30;2.30;;;32.80;33.50;;;;;;4970467;28;20473;-85
2022/06/22 11:50:42;;;;;;;2.17;1.90;;;32.80;33.40;;;;;;4978058;28;20476;-85
2022/06/22 11:53:22;;;;;;;2.27;2.07;;;32.80;33.70;;;;;;4979346;28;20474;-85
2022/06/22 11:55:56;;;;;;;2.50;2.30;;;32.90;33.40;;;;;;4960608;28;20474;-85
2022/06/22 11:58:43;;;;;;;2.90;1.93;;;32.90;33.20;;;;;;4973572;28;20454;-86
2022/06/22 12:01:37;;;;;;;7.53;2.20;;;32.80;33.30;;;;;;4940758;29;20512;-85
2022/06/22 12:04:29;;;;;;;2.40;2.20;;;32.90;33.30;;;;;;4956912;28;20467;-86
2022/06/22 12:07:26;;;;;;;2.90;2.10;;;33.10;33.10;;;;;;4962775;28;20518;-86
2022/06/22 12:10:04;;;;;;;2.30;2.10;;;33.10;32.80;;;;;;4959003;29;20523;-86
2022/06/22 12:13:02;;;;;;;2.60;2.00;;;33.20;33.10;;;;;;4979953;28;20465;-85
2022/06/22 12:15:46;;;;;;;2.50;2.30;;;33.30;32.70;;;;;;4970230;28;20492;-85
2022/06/22 12:18:25;;;;;;;2.53;2.10;;;33.30;32.70;;;;;;4957235;28;20930;-87
2022/06/22 12:21:15;;;;;;;2.37;2.27;;;33.30;32.40;;;;;;4958887;28;20486;-86
2022/06/22 12:23:53;;;;;;;2.10;2.00;;;33.30;32.30;;;;;;4958647;28;20534;-86
2022/06/22 12:26:27;;;;;;;2.80;2.60;;;33.10;32.50;;;;;;4955943;28;20447;-86
2022/06/22 12:29:11;;;;;;;2.83;1.93;;;33.30;32.30;;;;;;4957846;29;20447;-88
2022/06/22 12:34:38;;;;;;;2.00;1.90;;;33.30;31.80;;;;;;4976987;28;20450;-85
2022/06/22 12:37:14;;;;;;;2.37;2.17;;;33.30;32.30;;;;;;4978167;28;20481;-85
2022/06/22 12:39:43;;;;;;;2.23;2.03;;;33.50;32.10;;;;;;4963368;28;20455;-83
2022/06/22 12:42:34;;;;;;;4.40;2.47;;;33.50;32.00;;;;;;4974389;28;21056;-83
2022/06/22 12:45:12;;;;;;;3.53;2.33;;;33.60;32.20;;;;;;4963239;28;20502;-83
2022/06/22 12:48:14;;;;;;;2.10;2.00;;;33.60;31.90;;;;;;4977229;28;20446;-85
2022/06/22 12:51:00;;;;;;;3.70;2.40;;;33.70;31.90;;;;;;4976964;28;20488;-86
2022/06/22 12:53:32;;;;;;;2.37;2.17;;;33.70;31.60;;;;;;4978115;28;20480;-85
2022/06/22 12:56:04;;;;;;;3.00;2.00;;;33.60;31.70;;;;;;4977556;28;20474;-84
2022/06/22 12:58:38;;;;;;;3.13;1.70;;;33.70;31.70;;;;;;4979790;28;20438;-83
2022/06/22 13:01:06;;;;;;;2.30;2.10;;;33.70;31.70;;;;;;4977743;28;20542;-84
2022/06/22 13:03:35;;;;;;;2.23;2.00;;;33.70;31.50;;;;;;4977524;28;20954;-84
2022/06/22 13:06:04;;;;;;;2.40;2.20;;;33.70;31.50;;;;;;4977267;28;20536;-84
2022/06/22 13:08:33;;;;;;;2.90;2.27;;;33.70;31.50;;;;;;4977179;28;20486;-84
2022/06/22 13:11:06;;;;;;;4.00;2.00;;;33.80;31.60;;;;;;4976957;28;20533;-84
2022/06/22 13:13:41;;;;;;;2.40;2.00;;;33.80;31.40;;;;;;4977129;28;20466;-84
2022/06/22 13:16:13;;;;;;;4.80;1.67;;;33.80;31.10;;;;;;4977447;28;20515;-85
2022/06/22 13:18:43;;;;;;;2.80;2.10;;;33.80;31.40;;;;;;4977771;28;20417;-84
2022/06/22 13:21:13;;;;;;;2.47;2.27;;;33.70;31.10;;;;;;4978724;28;20473;-84
2022/06/22 13:23:47;;;;;;;2.10;1.90;;;33.70;31.20;;;;;;4978597;28;20484;-85
2022/06/22 13:26:24;;;;;;;2.10;2.00;;;33.80;31.30;;;;;;4977405;28;20466;-84
2022/06/22 13:28:56;;;;;;;2.40;1.83;;;33.80;31.30;;;;;;4977865;28;20472;-84
2022/06/22 13:31:33;;;;;;;5.90;2.27;;;33.70;31.00;;;;;;4976856;28;20473;-84
2022/06/22 13:34:03;;;;;;;2.40;1.80;;;33.70;31.10;;;;;;4976507;28;20445;-84
2022/06/22 13:36:34;;;;;;;1.93;1.80;;;33.70;31.00;;;;;;4979609;28;20474;-84
2022/06/22 13:39:10;;;;;;;2.00;1.80;;;33.70;31.20;;;;;;4983445;28;20468;-83
2022/06/22 13:41:51;;;;;;;2.30;1.80;;;33.80;31.10;;;;;;4984274;28;20488;-85
2022/06/22 13:44:29;;;;;;;1.83;1.73;;;33.70;30.90;;;;;;4984052;28;20475;-84
2022/06/22 13:47:14;;;;;;;2.43;1.93;;;33.70;31.00;;;;;;4983895;28;20444;-85
2022/06/22 13:49:46;;;;;;;2.10;1.90;;;33.60;31.20;;;;;;4984261;28;20477;-83
2022/06/22 13:52:21;;;;;;;2.20;2.00;;;33.60;30.70;;;;;;4985163;28;20466;-84
2022/06/22 13:55:16;;;;;;;2.03;1.93;;;33.50;31.10;;;;;;4984984;28;20532;-83
2022/06/22 13:57:46;;;;;;;3.70;2.40;;;33.60;31.10;;;;;;4982392;28;20477;-85
2022/06/22 14:00:16;;;;;;;3.00;1.80;;;33.60;31.10;;;;;;4984988;28;20480;-85